createdAt,value
2023-12-27T00:00:50.274Z,6.3
2023-12-27T00:02:49.980Z,6.3
2023-12-27T00:04:49.785Z,3.7
2023-12-27T00:06:49.693Z,4.6
2023-12-27T00:08:49.656Z,6.6
2023-12-27T00:10:49.473Z,6.6
2023-12-27T00:12:50.268Z,5.2
2023-12-27T00:14:50.049Z,6.9
2023-12-27T00:16:49.706Z,6.9
2023-12-27T00:18:50.432Z,4.6
2023-12-27T00:20:50.090Z,4.6
2023-12-27T00:22:49.752Z,8.7
2023-12-27T00:24:49.529Z,5.1
2023-12-27T00:26:49.342Z,6.6
2023-12-27T00:28:50.175Z,5.9
2023-12-27T00:30:50.025Z,5.9
2023-12-27T00:32:49.800Z,7.6
2023-12-27T00:34:49.644Z,7.6
2023-12-27T00:36:49.410Z,6.3
2023-12-27T00:38:50.309Z,5.1
2023-12-27T00:40:50.105Z,5.1
2023-12-27T00:42:49.848Z,7.0
2023-12-27T00:44:49.699Z,6.2
2023-12-27T00:46:49.547Z,8.2
2023-12-27T00:48:50.418Z,7.0
2023-12-27T00:50:49.404Z,7.0
2023-12-27T00:52:50.134Z,6.3
2023-12-27T00:54:49.743Z,7.5
2023-12-27T00:56:49.570Z,8.0
2023-12-27T00:58:49.403Z,7.8
2023-12-27T01:00:50.258Z,7.8
2023-12-27T01:02:50.002Z,6.1
2023-12-27T01:04:49.876Z,6.6
2023-12-27T01:06:49.656Z,6.6
2023-12-27T01:08:49.476Z,6.6
2023-12-27T01:10:50.285Z,6.1
2023-12-27T01:12:50.117Z,6.1
2023-12-27T01:14:49.948Z,5.6
2023-12-27T01:16:49.699Z,7.0
2023-12-27T01:18:49.702Z,7.0
2023-12-27T01:20:49.596Z,7.1
2023-12-27T01:22:49.395Z,7.1
2023-12-27T01:24:49.416Z,4.9
2023-12-27T01:26:50.183Z,5.9
2023-12-27T01:28:49.811Z,5.9
2023-12-27T01:30:49.711Z,7.8
2023-12-27T01:32:49.481Z,6.4
2023-12-27T01:34:50.396Z,6.4
2023-12-27T01:36:50.063Z,6.4
2023-12-27T01:38:49.664Z,8.4
2023-12-27T01:40:49.540Z,7.5
2023-12-27T01:42:50.304Z,7.5
2023-12-27T01:44:49.904Z,11.0
2023-12-27T01:46:49.781Z,6.5
2023-12-27T01:48:49.905Z,5.4
2023-12-27T01:50:49.743Z,6.2
2023-12-27T01:52:49.608Z,7.6
2023-12-27T01:54:49.411Z,6.4
2023-12-27T01:56:50.221Z,6.4
2023-12-27T01:58:50.047Z,7.0
2023-12-27T02:00:49.971Z,7.2
2023-12-27T02:02:49.625Z,7.1
2023-12-27T02:04:49.619Z,4.7
2023-12-27T02:06:49.484Z,4.7
2023-12-27T02:08:50.314Z,5.5
2023-12-27T02:10:50.140Z,5.5
2023-12-27T02:12:49.921Z,7.4
2023-12-27T02:14:49.755Z,5.0
2023-12-27T02:16:49.582Z,5.0
2023-12-27T02:18:49.463Z,6.7
2023-12-27T02:20:49.387Z,6.7
2023-12-27T02:22:50.280Z,6.7
2023-12-27T02:24:50.012Z,6.1
2023-12-27T02:26:49.804Z,6.1
2023-12-27T02:28:49.674Z,8.1
2023-12-27T02:30:49.550Z,7.6
2023-12-27T02:32:49.711Z,7.1
2023-12-27T02:34:49.942Z,5.7
2023-12-27T02:36:49.689Z,5.7
2023-12-27T02:38:50.303Z,7.8
2023-12-27T02:40:50.142Z,8.9
2023-12-27T02:42:49.936Z,5.3
2023-12-27T02:44:49.795Z,5.3
2023-12-27T02:46:49.634Z,8.3
2023-12-27T02:48:49.508Z,5.9
2023-12-27T02:50:50.236Z,7.1
2023-12-27T02:52:50.067Z,5.5
2023-12-27T02:54:49.833Z,5.5
2023-12-27T02:56:49.633Z,6.6
2023-12-27T02:58:50.265Z,6.4
2023-12-27T03:00:50.175Z,5.4
2023-12-27T03:02:49.908Z,6.3
2023-12-27T03:04:49.830Z,6.3
2023-12-27T03:06:49.545Z,7.0
2023-12-27T03:08:50.355Z,9.5
2023-12-27T03:10:50.157Z,6.9
2023-12-27T03:12:49.953Z,8.4
2023-12-27T03:14:49.761Z,8.4
2023-12-27T03:16:49.507Z,7.1
2023-12-27T03:18:50.434Z,6.1
2023-12-27T03:20:50.123Z,6.6
2023-12-27T03:22:49.928Z,6.6
2023-12-27T03:24:49.551Z,6.5
2023-12-27T03:26:50.329Z,5.8
2023-12-27T03:28:49.972Z,7.4
2023-12-27T03:30:49.984Z,6.3
2023-12-27T03:32:49.878Z,6.3
2023-12-27T03:34:49.850Z,5.5
2023-12-27T03:36:49.645Z,5.5
2023-12-27T03:38:49.447Z,6.2
2023-12-27T03:40:50.298Z,9.5
2023-12-27T03:42:50.072Z,6.4
2023-12-27T03:44:49.872Z,6.4
2023-12-27T03:46:49.505Z,5.8
2023-12-27T03:48:49.480Z,5.4
2023-12-27T03:50:50.209Z,8.6
2023-12-27T03:52:50.069Z,8.6
2023-12-27T03:54:49.845Z,4.9
2023-12-27T03:56:49.682Z,4.9
2023-12-27T03:58:49.526Z,6.3
2023-12-27T04:00:50.250Z,6.3
2023-12-27T04:02:50.177Z,7.8
2023-12-27T04:04:49.939Z,8.2
2023-12-27T04:06:49.793Z,7.7
2023-12-27T04:08:49.565Z,6.4
2023-12-27T04:10:49.405Z,6.9
2023-12-27T04:12:50.225Z,9.1
2023-12-27T04:14:50.001Z,9.1
2023-12-27T04:16:49.824Z,6.0
2023-12-27T04:18:49.784Z,7.1
2023-12-27T04:20:49.676Z,7.0
2023-12-27T04:22:49.501Z,7.0
2023-12-27T04:24:50.281Z,7.1
2023-12-27T04:26:50.155Z,7.1
2023-12-27T04:28:49.930Z,7.0
2023-12-27T04:30:49.852Z,6.0
2023-12-27T04:32:49.553Z,6.0
2023-12-27T04:34:49.356Z,7.5
2023-12-27T04:36:50.169Z,7.1
2023-12-27T04:38:49.773Z,5.8
2023-12-27T04:40:49.609Z,5.8
2023-12-27T04:42:49.409Z,6.5
2023-12-27T04:44:50.255Z,7.9
2023-12-27T04:46:50.065Z,6.2
2023-12-27T04:48:50.103Z,6.1
2023-12-27T04:50:49.848Z,6.1
2023-12-27T04:52:49.495Z,7.4
2023-12-27T04:54:50.322Z,6.5
2023-12-27T04:56:50.118Z,6.4
2023-12-27T04:58:49.711Z,6.8
2023-12-27T05:00:50.578Z,6.8
2023-12-27T05:02:49.405Z,6.3
2023-12-27T05:04:49.382Z,5.3
2023-12-27T05:06:50.181Z,6.2
2023-12-27T05:08:49.981Z,6.2
2023-12-27T05:10:49.799Z,7.7
2023-12-27T05:12:49.861Z,6.5
2023-12-27T05:14:49.646Z,5.3
2023-12-27T05:16:49.376Z,6.1
2023-12-27T05:18:50.241Z,6.1
2023-12-27T05:20:50.157Z,7.0
2023-12-27T05:22:49.804Z,6.5
2023-12-27T05:24:49.441Z,5.8
2023-12-27T05:26:50.230Z,7.1
2023-12-27T05:28:50.091Z,7.1
2023-12-27T05:30:50.059Z,6.4
2023-12-27T05:32:49.910Z,7.7
2023-12-27T05:34:49.876Z,6.4
2023-12-27T05:36:49.786Z,6.4
2023-12-27T05:38:49.544Z,7.1
2023-12-27T05:40:50.366Z,7.0
2023-12-27T05:42:50.176Z,8.4
2023-12-27T05:44:49.968Z,8.1
2023-12-27T05:46:49.833Z,8.1
2023-12-27T05:48:49.775Z,7.8
2023-12-27T05:50:49.675Z,8.6
2023-12-27T05:52:49.426Z,6.4
2023-12-27T05:54:50.241Z,10.4
2023-12-27T05:56:50.054Z,10.4
2023-12-27T05:58:49.701Z,7.2
2023-12-27T06:00:49.516Z,7.2
2023-12-27T06:02:50.338Z,9.6
2023-12-27T06:04:50.334Z,6.6
2023-12-27T06:06:50.094Z,6.6
2023-12-27T06:08:49.714Z,9.1
2023-12-27T06:10:49.367Z,5.6
2023-12-27T06:12:50.166Z,5.6
2023-12-27T06:14:49.771Z,6.3
2023-12-27T06:16:49.619Z,6.3
2023-12-27T06:18:49.441Z,7.2
2023-12-27T06:20:50.237Z,8.5
2023-12-27T06:22:50.166Z,8.0
2023-12-27T06:24:49.879Z,7.2
2023-12-27T06:26:49.697Z,7.2
2023-12-27T06:28:49.507Z,8.3
2023-12-27T06:30:50.461Z,6.7
2023-12-27T06:32:50.400Z,8.5
2023-12-27T06:34:50.349Z,8.5
2023-12-27T06:36:50.238Z,7.1
2023-12-27T06:38:50.165Z,6.6
2023-12-27T06:40:49.986Z,7.8
2023-12-27T06:42:49.770Z,7.8
2023-12-27T06:44:49.601Z,7.8
2023-12-27T06:46:49.432Z,6.7
2023-12-27T06:48:50.269Z,7.7
2023-12-27T06:50:50.045Z,7.0
2023-12-27T06:52:49.644Z,5.8
2023-12-27T06:54:50.239Z,5.8
2023-12-27T06:56:51.684Z,9.4
2023-12-27T06:58:49.595Z,6.0
2023-12-27T07:00:49.583Z,9.2
2023-12-27T07:02:49.480Z,9.0
2023-12-27T07:04:50.339Z,9.0
2023-12-27T07:06:50.300Z,7.9
2023-12-27T07:08:50.065Z,7.6
2023-12-27T07:10:49.667Z,8.4
2023-12-27T07:12:49.578Z,6.1
2023-12-27T07:14:50.345Z,6.9
2023-12-27T07:16:50.140Z,6.9
2023-12-27T07:18:50.074Z,5.4
2023-12-27T07:20:49.955Z,7.4
2023-12-27T07:22:49.595Z,7.1
2023-12-27T07:24:49.468Z,7.1
2023-12-27T07:26:50.221Z,7.7
2023-12-27T07:28:50.008Z,7.0
2023-12-27T07:32:49.468Z,6.2
2023-12-27T07:34:50.305Z,6.7
2023-12-27T07:36:50.170Z,7.9
2023-12-27T07:38:49.890Z,7.9
2023-12-27T07:40:49.740Z,7.1
2023-12-27T07:42:49.514Z,7.1
2023-12-27T07:44:51.681Z,7.5
2023-12-27T07:46:49.748Z,7.3
2023-12-27T07:48:49.628Z,6.2
2023-12-27T07:50:49.370Z,6.2
2023-12-27T07:52:50.190Z,7.5
2023-12-27T07:54:50.021Z,7.2
2023-12-27T07:56:49.785Z,7.2
2023-12-27T07:58:49.436Z,9.8
2023-12-27T08:00:50.491Z,8.8
2023-12-27T08:02:50.244Z,8.8
2023-12-27T08:04:50.073Z,8.2
2023-12-27T08:06:49.671Z,8.6
2023-12-27T08:08:50.297Z,8.3
2023-12-27T08:10:50.145Z,9.7
2023-12-27T08:12:49.935Z,8.2
2023-12-27T08:14:49.765Z,8.2
2023-12-27T08:16:49.586Z,10.4
2023-12-27T08:18:49.439Z,9.0
2023-12-27T08:20:50.159Z,11.8
2023-12-27T08:22:50.008Z,11.8
2023-12-27T08:24:49.811Z,10.9
2023-12-27T08:26:49.680Z,11.1
2023-12-27T08:28:49.475Z,10.5
2023-12-27T08:30:50.354Z,10.7
2023-12-27T08:32:50.080Z,10.7
2023-12-27T08:34:50.077Z,8.5
2023-12-27T08:36:49.937Z,7.2
2023-12-27T08:38:49.786Z,7.2
2023-12-27T08:40:51.920Z,9.7
2023-12-27T08:42:49.955Z,7.3
2023-12-27T08:44:49.602Z,9.1
2023-12-27T08:46:49.405Z,8.4
2023-12-27T08:48:50.254Z,8.6
2023-12-27T08:50:50.186Z,8.8
2023-12-27T08:52:49.796Z,8.8
2023-12-27T08:54:49.424Z,7.6
2023-12-27T08:56:50.312Z,8.7
2023-12-27T08:58:50.059Z,9.3
2023-12-27T09:00:49.821Z,9.3
2023-12-27T09:02:49.696Z,8.7
2023-12-27T09:04:50.345Z,8.8
2023-12-27T09:06:50.158Z,8.5
2023-12-27T09:08:49.977Z,10.1
2023-12-27T09:10:49.762Z,10.1
2023-12-27T09:12:49.640Z,8.1
2023-12-27T09:14:49.393Z,8.1
2023-12-27T09:16:50.201Z,9.3
2023-12-27T09:18:50.135Z,9.3
2023-12-27T09:20:49.909Z,5.4
2023-12-27T09:22:49.816Z,7.7
2023-12-27T09:24:49.557Z,11.6
2023-12-27T09:26:49.361Z,7.1
2023-12-27T09:28:50.189Z,7.1
2023-12-27T09:30:50.053Z,7.0
2023-12-27T09:32:49.930Z,8.1
2023-12-27T09:34:49.727Z,5.8
2023-12-27T09:36:49.639Z,7.1
2023-12-27T09:38:50.235Z,7.1
2023-12-27T09:40:49.884Z,7.1
2023-12-27T09:42:49.676Z,6.1
2023-12-27T09:44:50.296Z,5.5
2023-12-27T09:46:50.116Z,6.0
2023-12-27T09:48:50.020Z,6.0
2023-12-27T09:50:49.720Z,5.2
2023-12-27T09:52:49.600Z,6.7
2023-12-27T09:54:50.146Z,6.3
2023-12-27T09:56:49.948Z,5.9
2023-12-27T09:58:49.877Z,5.9
2023-12-27T10:00:49.759Z,5.2
2023-12-27T10:02:49.539Z,4.6
2023-12-27T10:04:50.333Z,4.6
2023-12-27T10:06:50.194Z,6.0
2023-12-27T10:08:49.963Z,6.1
2023-12-27T10:10:49.821Z,6.3
2023-12-27T10:12:49.645Z,6.0
2023-12-27T10:14:49.429Z,5.8
2023-12-27T10:16:50.260Z,5.8
2023-12-27T10:18:50.137Z,6.1
2023-12-27T10:20:49.845Z,6.3
2023-12-27T10:22:49.731Z,6.6
2023-12-27T10:24:49.495Z,5.6
2023-12-27T10:26:50.322Z,5.6
2023-12-27T10:28:50.153Z,6.5
2023-12-27T10:30:49.982Z,6.4
2023-12-27T10:32:49.810Z,6.4
2023-12-27T10:34:49.975Z,5.6
2023-12-27T10:36:49.787Z,5.6
2023-12-27T10:38:49.673Z,4.8
2023-12-27T10:40:49.478Z,7.8
2023-12-27T10:42:50.210Z,5.3
2023-12-27T10:44:50.040Z,6.1
2023-12-27T10:46:49.872Z,6.1
2023-12-27T10:48:49.762Z,6.9
2023-12-27T10:50:49.522Z,5.1
2023-12-27T10:52:50.370Z,6.6
2023-12-27T10:54:50.123Z,4.9
2023-12-27T10:56:49.903Z,4.9
2023-12-27T10:58:49.776Z,4.4
2023-12-27T11:00:49.780Z,6.4
2023-12-27T11:02:49.594Z,3.8
2023-12-27T11:04:49.437Z,3.8
2023-12-27T11:06:50.307Z,5.1
2023-12-27T11:08:50.000Z,5.0
2023-12-27T11:10:49.751Z,4.3
2023-12-27T11:12:49.478Z,3.7
2023-12-27T11:14:50.282Z,3.7
2023-12-27T11:16:50.134Z,4.3
2023-12-27T11:18:49.970Z,3.9
2023-12-27T11:20:49.706Z,4.5
2023-12-27T11:22:49.584Z,4.5
2023-12-27T11:24:49.421Z,4.1
2023-12-27T11:26:50.149Z,2.9
2023-12-27T11:28:49.974Z,3.5
2023-12-27T11:30:49.907Z,5.3
2023-12-27T11:32:49.661Z,5.3
2023-12-27T11:34:49.576Z,4.5
2023-12-27T11:36:49.493Z,4.6
2023-12-27T11:38:50.277Z,3.6
2023-12-27T11:40:50.126Z,3.9
2023-12-27T11:42:49.893Z,3.9
2023-12-27T11:44:49.706Z,3.8
2023-12-27T11:46:49.503Z,3.8
2023-12-27T11:48:50.420Z,3.1
2023-12-27T11:50:50.185Z,2.9
2023-12-27T11:52:55.907Z,2.9
2023-12-27T11:54:49.568Z,4.2
2023-12-27T11:56:49.397Z,4.2
2023-12-27T11:58:50.185Z,4.1
2023-12-27T12:00:50.051Z,3.2
2023-12-27T12:02:50.487Z,3.2
2023-12-27T12:04:50.030Z,3.5
2023-12-27T12:06:49.847Z,3.7
2023-12-27T12:08:50.682Z,3.5
2023-12-27T12:10:49.670Z,3.6
2023-12-27T12:12:49.680Z,3.6
2023-12-27T12:14:50.769Z,3.5
2023-12-27T12:16:49.509Z,4.2
2023-12-27T12:18:49.462Z,3.9
2023-12-27T12:20:49.996Z,3.9
2023-12-27T12:22:49.584Z,3.9
2023-12-27T12:24:49.482Z,3.0
2023-12-27T12:26:50.210Z,4.7
2023-12-27T12:28:50.002Z,2.8
2023-12-27T12:30:50.014Z,2.8
2023-12-27T12:32:49.936Z,4.0
2023-12-27T12:34:49.718Z,3.3
2023-12-27T12:36:49.503Z,3.8
2023-12-27T12:38:50.276Z,4.1
2023-12-27T12:40:50.167Z,4.1
2023-12-27T12:42:49.943Z,4.0
2023-12-27T12:44:49.749Z,4.5
2023-12-27T12:46:49.531Z,3.1
2023-12-27T12:48:50.312Z,3.1
2023-12-27T12:50:50.166Z,3.1
2023-12-27T12:52:49.776Z,5.8
2023-12-27T12:54:49.728Z,3.6
2023-12-27T12:56:49.605Z,3.9
2023-12-27T12:58:49.437Z,3.8
2023-12-27T13:00:50.382Z,3.8
2023-12-27T13:02:50.343Z,3.3
2023-12-27T13:04:50.080Z,4.5
2023-12-27T13:06:49.973Z,3.7
2023-12-27T13:08:49.686Z,3.7
2023-12-27T13:10:50.293Z,4.1
2023-12-27T13:12:50.168Z,6.2
2023-12-27T13:14:49.950Z,4.7
2023-12-27T13:16:49.819Z,3.4
2023-12-27T13:18:49.668Z,3.4
2023-12-27T13:20:49.408Z,5.2
2023-12-27T13:22:50.209Z,3.3
2023-12-27T13:24:50.075Z,4.7
2023-12-27T13:26:49.799Z,4.4
2023-12-27T13:28:49.633Z,5.2
2023-12-27T13:30:49.487Z,5.2
2023-12-27T13:32:50.344Z,5.0
2023-12-27T13:34:50.239Z,4.2
2023-12-27T13:36:50.253Z,4.9
2023-12-27T13:38:50.096Z,4.9
2023-12-27T13:40:49.916Z,4.1
2023-12-27T13:42:49.770Z,3.6
2023-12-27T13:44:49.487Z,3.9
2023-12-27T13:46:50.259Z,5.0
2023-12-27T13:48:50.217Z,5.0
2023-12-27T13:50:50.084Z,4.9
2023-12-27T13:52:49.682Z,4.9
2023-12-27T13:54:50.343Z,4.9
2023-12-27T13:56:50.120Z,4.4
2023-12-27T13:58:49.783Z,4.4
2023-12-27T14:00:49.821Z,5.3
2023-12-27T14:02:49.764Z,3.0
2023-12-27T14:04:49.640Z,3.4
2023-12-27T14:06:49.463Z,4.6
2023-12-27T14:08:50.230Z,4.6
2023-12-27T14:10:50.032Z,4.8
2023-12-27T14:12:49.750Z,4.7
2023-12-27T14:14:49.475Z,4.5
2023-12-27T14:16:50.271Z,6.9
2023-12-27T14:18:50.379Z,6.9
2023-12-27T14:20:50.107Z,3.4
2023-12-27T14:22:49.692Z,3.4
2023-12-27T14:24:50.390Z,4.1
2023-12-27T14:26:50.177Z,4.1
2023-12-27T14:28:49.951Z,4.1
2023-12-27T14:30:49.705Z,3.5
2023-12-27T14:32:49.507Z,4.0
2023-12-27T14:34:49.595Z,4.0
2023-12-27T14:36:49.532Z,3.6
2023-12-27T14:38:50.252Z,6.7
2023-12-27T14:40:50.073Z,3.2
2023-12-27T14:42:49.784Z,4.6
2023-12-27T14:44:49.710Z,4.3
2023-12-27T14:46:49.505Z,4.3
2023-12-27T14:48:50.409Z,4.6
2023-12-27T14:50:50.140Z,3.7
2023-12-27T14:52:49.962Z,4.1
2023-12-27T14:54:49.907Z,4.1
2023-12-27T14:56:49.784Z,3.2
2023-12-27T14:58:49.579Z,4.3
2023-12-27T15:00:50.327Z,4.0
2023-12-27T15:02:50.212Z,4.8
2023-12-27T15:04:50.154Z,4.3
2023-12-27T15:06:50.188Z,4.3
2023-12-27T15:08:50.061Z,4.7
2023-12-27T15:10:49.644Z,4.9
2023-12-27T15:12:49.590Z,4.2
2023-12-27T15:14:50.296Z,4.2
2023-12-27T15:16:50.114Z,4.7
2023-12-27T15:18:50.014Z,4.8
2023-12-27T15:20:49.728Z,7.8
2023-12-27T15:22:49.467Z,4.7
2023-12-27T15:24:50.394Z,4.7
2023-12-27T15:26:50.323Z,5.5
2023-12-27T15:28:50.111Z,5.0
2023-12-27T15:30:50.103Z,5.0
2023-12-27T15:32:50.013Z,5.9
2023-12-27T15:34:49.959Z,5.5
2023-12-27T15:36:50.093Z,5.6
2023-12-27T15:38:50.000Z,3.7
2023-12-27T15:40:49.786Z,3.9
2023-12-27T15:42:49.809Z,3.9
2023-12-27T15:44:49.633Z,6.2
2023-12-27T15:46:49.455Z,7.2
2023-12-27T15:48:50.419Z,4.0
2023-12-27T15:50:50.282Z,4.0
2023-12-27T15:52:50.077Z,4.3
2023-12-27T15:54:49.915Z,4.2
2023-12-27T15:56:49.705Z,6.2
2023-12-27T15:58:50.338Z,6.4
2023-12-27T16:00:50.190Z,6.4
2023-12-27T16:02:49.985Z,5.5
2023-12-27T16:04:49.855Z,4.6
2023-12-27T16:06:49.755Z,6.5
2023-12-27T16:08:49.605Z,5.1
2023-12-27T16:10:49.421Z,7.6
2023-12-27T16:12:50.312Z,7.6
2023-12-27T16:14:50.051Z,4.3
2023-12-27T16:16:49.888Z,6.2
2023-12-27T16:18:49.821Z,6.9
2023-12-27T16:20:49.861Z,8.1
2023-12-27T16:22:50.210Z,8.1
2023-12-27T16:24:50.039Z,6.7
2023-12-27T16:26:49.815Z,5.7
2023-12-27T16:28:49.631Z,6.1
2023-12-27T16:30:49.580Z,5.9
2023-12-27T16:32:50.316Z,5.9
2023-12-27T16:34:50.265Z,5.3
2023-12-27T16:36:50.214Z,6.0
2023-12-27T16:38:49.997Z,4.9
2023-12-27T16:40:49.616Z,4.9
2023-12-27T16:42:50.266Z,6.1
2023-12-27T16:44:49.867Z,6.3
2023-12-27T16:46:49.716Z,6.0
2023-12-27T16:48:51.090Z,6.0
2023-12-27T16:50:49.454Z,6.0
2023-12-27T16:52:50.219Z,4.7
2023-12-27T16:54:50.076Z,5.5
2023-12-27T16:56:49.827Z,5.5
2023-12-27T16:58:49.448Z,7.7
2023-12-27T17:00:50.411Z,7.7
2023-12-27T17:02:50.336Z,6.3
2023-12-27T17:04:50.129Z,6.1
2023-12-27T17:06:49.954Z,6.1
2023-12-27T17:08:49.773Z,5.4
2023-12-27T17:10:49.737Z,6.7
2023-12-27T17:12:49.622Z,4.9
2023-12-27T17:14:49.396Z,6.7
2023-12-27T17:16:50.196Z,6.7
2023-12-27T17:18:50.150Z,4.2
2023-12-27T17:20:50.027Z,5.4
2023-12-27T17:22:49.878Z,4.2
2023-12-27T17:24:49.705Z,6.3
2023-12-27T17:26:49.459Z,7.3
2023-12-27T17:28:50.269Z,7.3
2023-12-27T17:30:49.946Z,6.4
2023-12-27T17:32:49.768Z,6.0
2023-12-27T17:34:49.654Z,4.3
2023-12-27T17:36:49.552Z,5.0
2023-12-27T17:38:49.384Z,5.0
2023-12-27T17:40:50.162Z,5.4
2023-12-27T17:42:50.090Z,6.6
2023-12-27T17:44:49.767Z,7.2
2023-12-27T17:46:49.639Z,6.4
2023-12-27T17:48:49.572Z,6.4
2023-12-27T17:50:49.471Z,7.6
2023-12-27T17:52:50.282Z,6.0
2023-12-27T17:54:50.317Z,6.3
2023-12-27T17:56:50.066Z,7.0
2023-12-27T17:58:49.681Z,7.0
2023-12-27T18:00:49.739Z,4.1
2023-12-27T18:02:50.547Z,6.2
2023-12-27T18:04:49.986Z,7.2
2023-12-27T18:06:49.849Z,7.3
2023-12-27T18:08:49.604Z,7.3
2023-12-27T18:10:49.414Z,6.6
2023-12-27T18:12:50.316Z,6.0
2023-12-27T18:14:50.320Z,6.2
2023-12-27T18:16:50.215Z,6.2
2023-12-27T18:18:50.195Z,6.2
2023-12-27T18:20:50.053Z,6.1
2023-12-27T18:22:49.831Z,8.6
2023-12-27T18:24:49.547Z,6.1
2023-12-27T18:26:50.299Z,6.1
2023-12-27T18:28:50.107Z,5.6
2023-12-27T18:30:50.017Z,5.4
2023-12-27T18:32:49.770Z,6.1
2023-12-27T18:34:49.637Z,8.4
2023-12-27T18:36:49.881Z,8.4
2023-12-27T18:38:49.801Z,5.9
2023-12-27T18:40:49.602Z,6.0
2023-12-27T18:42:49.518Z,6.0
2023-12-27T18:44:49.415Z,5.9
2023-12-27T18:46:50.232Z,5.9
2023-12-27T18:48:50.207Z,8.0
2023-12-27T18:50:50.103Z,7.4
2023-12-27T18:52:49.885Z,7.4
2023-12-27T18:54:49.583Z,6.3
2023-12-27T18:56:50.326Z,6.3
2023-12-27T18:58:50.107Z,6.7
2023-12-27T19:00:50.146Z,7.6
2023-12-27T19:02:50.010Z,6.8
2023-12-27T19:04:49.759Z,6.8
2023-12-27T19:06:49.755Z,6.9
2023-12-27T19:08:49.608Z,6.4
2023-12-27T19:10:49.408Z,6.8
2023-12-27T19:12:50.296Z,6.7
2023-12-27T19:14:50.052Z,6.7
2023-12-27T19:16:49.847Z,7.4
2023-12-27T19:18:49.797Z,8.8
2023-12-27T19:20:49.516Z,7.7
2023-12-27T19:22:50.322Z,6.0
2023-12-27T19:24:50.132Z,6.0
2023-12-27T19:26:49.903Z,6.3
2023-12-27T19:28:49.843Z,8.1
2023-12-27T19:30:49.677Z,6.8
2023-12-27T19:32:49.429Z,8.6
2023-12-27T19:34:50.371Z,8.6
2023-12-27T19:36:50.420Z,7.0
2023-12-27T19:38:50.133Z,9.3
2023-12-27T19:40:49.942Z,9.0
2023-12-27T19:42:49.835Z,9.6
2023-12-27T19:44:49.552Z,9.6
2023-12-27T19:46:49.356Z,8.0
2023-12-27T19:48:50.288Z,7.3
2023-12-27T19:50:50.226Z,6.5
2023-12-27T19:52:50.036Z,8.8
2023-12-27T19:54:49.858Z,8.8
2023-12-27T19:56:49.645Z,9.0
2023-12-27T19:58:50.240Z,9.2
2023-12-27T20:00:50.104Z,9.2
2023-12-27T20:02:50.080Z,9.2
2023-12-27T20:04:49.997Z,9.6
2023-12-27T20:06:49.890Z,9.6
2023-12-27T20:08:49.608Z,10.0
2023-12-27T20:10:49.442Z,8.9
2023-12-27T20:12:50.332Z,8.9
2023-12-27T20:14:50.076Z,12.8
2023-12-27T20:16:49.897Z,9.4
2023-12-27T20:18:49.981Z,9.7
2023-12-27T20:20:49.812Z,8.9
2023-12-27T20:22:49.666Z,8.9
2023-12-27T20:24:49.523Z,9.1
2023-12-27T20:26:50.257Z,10.3
2023-12-27T20:28:49.853Z,10.3
2023-12-27T20:30:49.791Z,11.9
2023-12-27T20:32:49.599Z,11.9
2023-12-27T20:34:49.641Z,11.2
2023-12-27T20:36:49.600Z,10.3
2023-12-27T20:38:49.357Z,10.2
2023-12-27T20:40:50.184Z,10.2
2023-12-27T20:42:52.279Z,11.5
2023-12-27T20:44:49.589Z,11.0
2023-12-27T20:46:49.502Z,11.7
2023-12-27T20:48:49.696Z,11.9
2023-12-27T20:50:49.434Z,11.9
2023-12-27T20:52:50.263Z,10.9
2023-12-27T20:54:50.224Z,10.4
2023-12-27T20:56:50.082Z,11.1
2023-12-27T20:58:49.874Z,10.1
2023-12-27T21:00:49.805Z,11.2
2023-12-27T21:02:49.552Z,11.2
2023-12-27T21:04:50.353Z,10.2
2023-12-27T21:06:50.160Z,9.3
2023-12-27T21:08:49.958Z,9.5
2023-12-27T21:10:49.750Z,9.5
2023-12-27T21:12:49.665Z,8.0
2023-12-27T21:14:49.407Z,9.2
2023-12-27T21:16:50.218Z,7.7
2023-12-27T21:18:50.280Z,7.7
2023-12-27T21:20:50.274Z,9.8
2023-12-27T21:22:50.080Z,7.6
2023-12-27T21:24:49.993Z,7.9
2023-12-27T21:26:49.932Z,6.6
2023-12-27T21:28:49.728Z,7.1
2023-12-27T21:30:49.646Z,7.1
2023-12-27T21:32:49.605Z,8.8
2023-12-27T21:34:49.555Z,7.1
2023-12-27T21:36:49.392Z,7.4
2023-12-27T21:38:50.194Z,7.4
2023-12-27T21:40:50.014Z,7.8
2023-12-27T21:42:49.865Z,6.8
2023-12-27T21:44:49.625Z,6.1
2023-12-27T21:46:49.427Z,7.9
2023-12-27T21:48:50.391Z,7.9
2023-12-27T21:50:50.286Z,7.5
2023-12-27T21:52:50.070Z,7.3
2023-12-27T21:54:50.040Z,7.4
2023-12-27T21:56:49.918Z,8.3
2023-12-27T21:58:49.746Z,8.3
2023-12-27T22:00:49.663Z,6.3
2023-12-27T22:02:49.478Z,6.3
2023-12-27T22:04:49.393Z,6.4
2023-12-27T22:06:50.287Z,8.2
2023-12-27T22:08:50.204Z,8.2
2023-12-27T22:10:50.001Z,6.2
2023-12-27T22:12:49.921Z,6.7
2023-12-27T22:14:49.635Z,6.1
2023-12-27T22:16:49.477Z,6.1
2023-12-27T22:18:50.387Z,7.0
2023-12-27T22:20:50.314Z,6.8
2023-12-27T22:22:50.128Z,7.5
2023-12-27T22:24:50.034Z,7.6
2023-12-27T22:26:49.950Z,7.6
2023-12-27T22:28:49.771Z,8.7
2023-12-27T22:30:49.727Z,6.9
2023-12-27T22:32:49.653Z,9.0
2023-12-27T22:34:49.638Z,9.0
2023-12-27T22:36:49.431Z,8.0
2023-12-27T22:38:50.239Z,8.3
2023-12-27T22:40:50.039Z,6.5
2023-12-27T22:42:49.944Z,9.5
2023-12-27T22:44:49.652Z,7.0
2023-12-27T22:46:49.490Z,7.0
2023-12-27T22:48:50.421Z,6.0
2023-12-27T22:50:50.318Z,7.9
2023-12-27T22:52:50.113Z,7.5
2023-12-27T22:54:49.994Z,8.3
2023-12-27T22:56:49.733Z,8.3
2023-12-27T22:58:49.578Z,8.9
2023-12-27T23:00:49.509Z,8.9
2023-12-27T23:02:49.388Z,8.9
2023-12-27T23:04:50.318Z,8.1
2023-12-27T23:06:50.326Z,8.1
2023-12-27T23:08:50.284Z,8.4
2023-12-27T23:10:50.078Z,8.7
2023-12-27T23:12:49.943Z,9.3
2023-12-27T23:14:49.654Z,8.1
2023-12-27T23:16:49.514Z,8.1
2023-12-27T23:18:50.470Z,10.7
2023-12-27T23:20:50.319Z,7.0
2023-12-27T23:22:50.126Z,7.6
2023-12-27T23:24:49.844Z,7.6
2023-12-27T23:26:49.856Z,10.1
2023-12-27T23:28:49.613Z,7.4
2023-12-27T23:30:50.279Z,9.5
2023-12-27T23:32:51.622Z,7.9
2023-12-27T23:34:50.154Z,7.9
2023-12-27T23:36:50.154Z,7.3
2023-12-27T23:38:49.845Z,8.1
2023-12-27T23:40:49.668Z,8.1
2023-12-27T23:42:49.562Z,7.9
2023-12-27T23:44:50.323Z,7.9
2023-12-27T23:46:50.112Z,7.9
2023-12-27T23:48:50.082Z,7.1
2023-12-27T23:50:49.962Z,7.1
2023-12-27T23:52:49.750Z,10.2
2023-12-27T23:54:49.657Z,10.2
2023-12-27T23:56:49.367Z,7.1
2023-12-27T23:58:50.202Z,8.7
